createdAt,value
2022-09-25T00:02:08.152Z,72.87
2022-09-25T00:04:36.837Z,61.93
2022-09-25T00:07:05.398Z,65.00
2022-09-25T00:09:33.975Z,66.07
2022-09-25T00:12:03.022Z,69.73
2022-09-25T00:14:31.603Z,65.40
2022-09-25T00:17:01.723Z,67.00
2022-09-25T00:19:47.517Z,62.40
2022-09-25T00:22:16.121Z,68.00
2022-09-25T00:24:44.774Z,65.00
2022-09-25T00:27:13.691Z,62.07
2022-09-25T00:29:43.584Z,69.50
2022-09-25T00:32:14.097Z,68.97
2022-09-25T00:34:43.143Z,71.57
2022-09-25T00:37:11.714Z,78.90
2022-09-25T00:39:40.563Z,67.53
2022-09-25T00:42:09.184Z,72.47
2022-09-25T00:44:59.891Z,62.60
2022-09-25T00:47:50.693Z,56.47
2022-09-25T00:50:32.779Z,53.07
2022-09-25T00:53:06.595Z,55.83
2022-09-25T00:55:37.582Z,57.50
2022-09-25T00:58:07.697Z,56.20
2022-09-25T01:00:36.477Z,54.53
2022-09-25T01:03:08.448Z,52.33
2022-09-25T01:05:38.810Z,53.30
2022-09-25T01:08:12.683Z,50.37
2022-09-25T01:10:42.210Z,47.10
2022-09-25T01:13:12.025Z,37.87
2022-09-25T01:15:44.968Z,36.83
2022-09-25T01:18:21.780Z,39.10
2022-09-25T01:21:20.725Z,37.53
2022-09-25T01:24:06.344Z,33.07
2022-09-25T01:27:15.411Z,33.67
2022-09-25T01:29:53.285Z,32.90
2022-09-25T01:32:25.144Z,34.23
2022-09-25T01:35:01.430Z,34.53
2022-09-25T01:37:36.053Z,33.60
2022-09-25T01:40:13.523Z,36.53
2022-09-25T01:42:49.396Z,34.67
2022-09-25T01:45:28.768Z,34.83
2022-09-25T01:48:01.058Z,32.33
2022-09-25T01:50:34.193Z,34.00
2022-09-25T01:53:08.873Z,33.10
2022-09-25T01:55:41.733Z,33.07
2022-09-25T01:58:16.266Z,36.93
2022-09-25T02:00:51.138Z,36.00
2022-09-25T02:03:26.051Z,35.73
2022-09-25T02:05:58.330Z,36.07
2022-09-25T02:08:31.525Z,37.57
2022-09-25T02:11:02.486Z,38.17
2022-09-25T02:13:37.371Z,37.13
2022-09-25T02:16:12.688Z,34.77
2022-09-25T02:18:59.241Z,34.30
2022-09-25T02:21:36.283Z,33.37
2022-09-25T02:24:13.332Z,34.77
2022-09-25T02:26:42.073Z,33.37
2022-09-25T02:29:10.890Z,30.23
2022-09-25T02:31:46.723Z,31.23
2022-09-25T02:34:15.596Z,31.40
2022-09-25T02:36:45.070Z,28.67
2022-09-25T02:39:17.468Z,30.07
2022-09-25T02:42:03.221Z,30.50
2022-09-25T02:44:43.703Z,30.63
2022-09-25T02:47:26.424Z,30.93
2022-09-25T02:50:05.662Z,29.97
2022-09-25T02:52:42.495Z,31.70
2022-09-25T02:55:19.116Z,30.03
2022-09-25T02:57:53.317Z,31.90
2022-09-25T03:00:23.700Z,31.73
2022-09-25T03:02:56.894Z,30.40
2022-09-25T03:05:27.109Z,29.63
2022-09-25T03:08:13.571Z,31.47
2022-09-25T03:10:46.331Z,32.47
2022-09-25T03:13:16.509Z,34.43
2022-09-25T03:15:48.059Z,30.63
2022-09-25T03:18:18.426Z,31.73
2022-09-25T03:20:47.122Z,30.03
2022-09-25T03:23:15.725Z,32.70
2022-09-25T03:25:49.759Z,32.57
2022-09-25T03:28:18.932Z,33.53
2022-09-25T03:30:58.593Z,30.47
2022-09-25T03:33:29.922Z,29.00
2022-09-25T03:36:08.180Z,30.67
2022-09-25T03:38:37.235Z,30.77
2022-09-25T03:41:08.938Z,32.37
2022-09-25T03:43:38.287Z,30.87
2022-09-25T03:46:08.129Z,30.63
2022-09-25T03:48:38.918Z,30.27
2022-09-25T03:51:09.131Z,28.80
2022-09-25T03:53:38.192Z,31.03
2022-09-25T03:56:09.331Z,30.77
2022-09-25T03:58:37.946Z,30.53
2022-09-25T04:01:07.012Z,29.83
2022-09-25T04:03:37.672Z,30.53
2022-09-25T04:06:08.575Z,28.57
2022-09-25T04:08:38.303Z,32.25
2022-09-25T04:11:07.452Z,37.30
2022-09-25T04:13:37.549Z,29.90
2022-09-25T04:16:08.455Z,30.83
2022-09-25T04:18:38.874Z,30.97
2022-09-25T04:21:09.626Z,29.77
2022-09-25T04:23:39.345Z,29.67
2022-09-25T04:26:10.719Z,29.30
2022-09-25T04:28:39.909Z,30.20
2022-09-25T04:31:08.525Z,29.43
2022-09-25T04:33:49.515Z,30.13
2022-09-25T04:36:19.227Z,28.83
2022-09-25T04:38:48.183Z,28.37
2022-09-25T04:41:19.894Z,30.10
2022-09-25T04:43:48.658Z,28.30
2022-09-25T04:46:21.890Z,32.27
2022-09-25T04:49:05.485Z,30.03
2022-09-25T04:51:34.100Z,29.13
2022-09-25T04:54:02.867Z,27.50
2022-09-25T04:56:31.588Z,29.60
2022-09-25T04:59:00.554Z,30.30
2022-09-25T05:01:29.248Z,29.87
2022-09-25T05:03:57.988Z,28.43
2022-09-25T05:06:28.326Z,29.73
2022-09-25T05:08:57.920Z,31.43
2022-09-25T05:11:26.631Z,31.60
2022-09-25T05:13:55.261Z,34.35
2022-09-25T05:16:23.948Z,47.57
2022-09-25T05:18:55.585Z,34.73
2022-09-25T05:21:24.440Z,66.40
2022-09-25T05:23:54.484Z,46.27
2022-09-25T05:26:23.516Z,70.70
2022-09-25T05:28:52.329Z,29.13
2022-09-25T05:31:21.124Z,75.57
2022-09-25T05:33:51.650Z,45.53
2022-09-25T05:36:20.690Z,28.97
2022-09-25T05:38:49.788Z,28.20
2022-09-25T05:41:20.160Z,28.00
2022-09-25T05:43:48.892Z,28.10
2022-09-25T05:46:17.626Z,26.60
2022-09-25T05:48:46.393Z,28.40
2022-09-25T05:51:15.772Z,29.33
2022-09-25T05:53:44.476Z,31.43
2022-09-25T05:56:13.829Z,73.88
2022-09-25T05:58:43.966Z,36.53
2022-09-25T06:01:12.539Z,32.92
2022-09-25T06:03:41.294Z,88.57
2022-09-25T06:06:10.277Z,67.93
2022-09-25T06:08:39.078Z,62.57
2022-09-25T06:11:11.684Z,61.30
2022-09-25T06:13:41.079Z,51.73
2022-09-25T06:16:19.607Z,46.43
2022-09-25T06:18:48.648Z,42.60
2022-09-25T06:21:17.261Z,46.97
2022-09-25T06:23:46.943Z,60.73
2022-09-25T06:26:15.705Z,57.77
2022-09-25T06:28:44.332Z,70.17
2022-09-25T06:31:14.347Z,71.83
2022-09-25T06:33:44.019Z,78.23
2022-09-25T06:36:12.593Z,78.17
2022-09-25T06:38:41.276Z,83.53
2022-09-25T06:41:09.946Z,77.67
2022-09-25T06:43:38.561Z,69.10
2022-09-25T06:46:07.410Z,74.90
2022-09-25T06:48:37.489Z,73.40
2022-09-25T06:51:08.906Z,69.00
2022-09-25T06:53:37.531Z,74.07
2022-09-25T06:56:06.224Z,81.10
2022-09-25T06:58:36.249Z,76.90
2022-09-25T07:01:09.642Z,88.20
2022-09-25T07:03:49.342Z,82.00
2022-09-25T07:06:20.446Z,80.97
2022-09-25T07:08:50.002Z,87.13
2022-09-25T07:11:20.648Z,95.33
2022-09-25T07:13:55.601Z,83.37
2022-09-25T07:16:25.874Z,74.80
2022-09-25T07:18:58.682Z,76.70
2022-09-25T07:21:30.846Z,84.33
2022-09-25T07:23:59.645Z,87.43
2022-09-25T07:26:30.455Z,69.13
2022-09-25T07:29:00.828Z,73.60
2022-09-25T07:31:31.640Z,28.17
2022-09-25T07:34:10.071Z,24.00
2022-09-25T07:36:39.564Z,32.20
2022-09-25T07:39:08.629Z,40.87
2022-09-25T07:41:38.080Z,40.67
2022-09-25T07:44:27.214Z,40.37
2022-09-25T07:46:56.559Z,38.90
2022-09-25T07:49:26.666Z,35.50
2022-09-25T07:51:55.330Z,34.90
2022-09-25T07:54:23.952Z,34.20
2022-09-25T07:56:56.015Z,33.93
2022-09-25T07:59:26.708Z,32.17
2022-09-25T08:01:55.774Z,31.13
2022-09-25T08:04:28.155Z,32.13
2022-09-25T08:06:57.104Z,34.10
2022-09-25T08:09:27.038Z,29.67
2022-09-25T08:11:55.687Z,27.83
2022-09-25T08:14:27.002Z,27.57
2022-09-25T08:16:56.239Z,31.80
2022-09-25T08:19:28.110Z,28.90
2022-09-25T08:21:56.921Z,27.07
2022-09-25T08:24:25.569Z,24.93
2022-09-25T08:26:54.140Z,26.93
2022-09-25T08:29:23.268Z,22.33
2022-09-25T08:31:51.934Z,24.20
2022-09-25T08:34:40.165Z,27.20
2022-09-25T08:37:11.204Z,28.37
2022-09-25T08:39:39.916Z,28.13
2022-09-25T08:42:14.116Z,30.83
2022-09-25T08:45:08.937Z,24.70
2022-09-25T08:47:55.557Z,26.30
2022-09-25T08:50:25.892Z,26.27
2022-09-25T08:53:06.841Z,26.87
2022-09-25T08:55:54.581Z,26.67
2022-09-25T08:58:26.022Z,21.40
2022-09-25T09:00:57.545Z,28.83
2022-09-25T09:03:30.716Z,29.17
2022-09-25T09:06:04.248Z,18.03
2022-09-25T09:08:38.042Z,20.07
2022-09-25T09:11:13.870Z,22.90
2022-09-25T09:13:48.598Z,21.03
2022-09-25T09:16:23.280Z,10.90
2022-09-25T09:18:52.271Z,13.23
2022-09-25T09:21:26.722Z,11.60
2022-09-25T09:24:04.429Z,12.17
2022-09-25T09:26:46.521Z,12.37
2022-09-25T09:29:33.732Z,12.70
2022-09-25T09:32:11.992Z,13.87
2022-09-25T09:35:06.865Z,14.53
2022-09-25T09:37:46.733Z,14.43
2022-09-25T09:40:47.455Z,14.07
2022-09-25T09:43:31.524Z,22.20
2022-09-25T09:46:06.881Z,6.72
2022-09-25T09:48:42.391Z,17.03
2022-09-25T09:51:18.375Z,23.27
2022-09-25T09:53:51.815Z,21.23
2022-09-25T09:56:27.707Z,24.77
2022-09-25T09:58:59.708Z,65.30
2022-09-25T10:01:42.175Z,21.70
2022-09-25T10:04:14.326Z,19.80
2022-09-25T10:06:48.228Z,22.07
2022-09-25T10:09:18.154Z,20.80
2022-09-25T10:11:58.432Z,21.27
2022-09-25T10:14:34.846Z,20.17
2022-09-25T10:17:05.195Z,20.63
2022-09-25T10:19:44.849Z,20.23
2022-09-25T10:22:17.269Z,19.73
2022-09-25T10:24:55.602Z,21.30
2022-09-25T10:27:30.116Z,20.33
2022-09-25T10:30:20.682Z,16.17
2022-09-25T10:33:01.253Z,16.43
2022-09-25T10:35:41.416Z,16.17
2022-09-25T10:38:29.811Z,16.67
2022-09-25T10:41:03.208Z,16.70
2022-09-25T10:43:33.616Z,16.50
2022-09-25T10:46:11.140Z,14.40
2022-09-25T10:48:57.948Z,14.57
2022-09-25T10:51:27.325Z,14.50
2022-09-25T10:54:12.914Z,9.15
2022-09-25T10:56:42.017Z,15.53
2022-09-25T10:59:19.978Z,17.15
2022-09-25T11:01:51.271Z,14.63
2022-09-25T11:04:25.007Z,17.27
2022-09-25T11:06:57.657Z,17.60
2022-09-25T11:09:28.654Z,15.93
2022-09-25T11:12:08.742Z,16.53
2022-09-25T11:14:38.796Z,17.77
2022-09-25T11:17:08.648Z,17.37
2022-09-25T11:19:39.975Z,16.33
2022-09-25T11:22:21.224Z,14.03
2022-09-25T11:25:01.339Z,15.03
2022-09-25T11:27:36.637Z,15.77
2022-09-25T11:30:12.503Z,14.47
2022-09-25T11:32:53.123Z,13.87
2022-09-25T11:35:34.954Z,12.93
2022-09-25T11:38:12.951Z,13.07
2022-09-25T11:41:16.803Z,13.53
2022-09-25T11:44:07.537Z,36.20
2022-09-25T11:46:45.170Z,18.13
2022-09-25T11:49:22.689Z,17.73
2022-09-25T11:52:32.721Z,14.10
2022-09-25T11:55:42.807Z,12.03
2022-09-25T11:58:25.151Z,15.50
2022-09-25T12:01:02.085Z,14.80
2022-09-25T12:03:47.811Z,21.57
2022-09-25T12:06:40.094Z,15.15
2022-09-25T12:09:27.150Z,11.70
2022-09-25T12:12:02.143Z,13.90
2022-09-25T12:14:38.151Z,11.85
2022-09-25T12:17:13.539Z,11.70
2022-09-25T12:19:53.802Z,19.33
2022-09-25T12:22:29.348Z,23.48
2022-09-25T12:25:06.059Z,17.35
2022-09-25T12:27:51.662Z,23.02
2022-09-25T12:30:25.476Z,24.17
2022-09-25T12:33:15.909Z,24.95
2022-09-25T12:35:51.258Z,19.88
2022-09-25T12:38:29.457Z,16.40
2022-09-25T12:41:07.093Z,17.48
2022-09-25T12:43:43.040Z,20.38
2022-09-25T12:46:19.716Z,24.53
2022-09-25T12:48:53.501Z,24.70
2022-09-25T12:51:29.010Z,29.40
2022-09-25T12:54:00.965Z,27.23
2022-09-25T12:56:35.122Z,20.63
2022-09-25T12:59:12.305Z,23.80
2022-09-25T13:01:48.770Z,18.27
2022-09-25T13:04:44.760Z,18.30
2022-09-25T13:07:21.224Z,21.30
2022-09-25T13:09:50.809Z,22.30
2022-09-25T13:12:27.792Z,19.55
2022-09-25T13:15:00.049Z,20.08
2022-09-25T13:17:28.815Z,19.37
2022-09-25T13:20:37.859Z,18.92
2022-09-25T13:23:14.105Z,15.55
2022-09-25T13:25:46.790Z,13.25
2022-09-25T13:28:23.036Z,17.05
2022-09-25T13:31:13.014Z,15.93
2022-09-25T13:33:49.767Z,13.85
2022-09-25T13:36:33.113Z,16.90
2022-09-25T13:39:23.460Z,17.50
2022-09-25T13:41:56.620Z,17.13
2022-09-25T13:45:07.985Z,18.73
2022-09-25T13:47:51.857Z,27.13
2022-09-25T13:50:35.126Z,16.80
2022-09-25T13:53:32.413Z,17.27
2022-09-25T13:56:46.483Z,17.85
2022-09-25T13:59:36.362Z,19.60
2022-09-25T14:02:42.121Z,20.25
2022-09-25T14:05:19.949Z,15.23
2022-09-25T14:07:55.121Z,18.35
2022-09-25T14:10:24.679Z,19.77
2022-09-25T14:12:55.039Z,17.02
2022-09-25T14:15:30.649Z,20.02
2022-09-25T14:18:01.499Z,21.02
2022-09-25T14:20:36.635Z,17.67
2022-09-25T14:23:08.768Z,18.73
2022-09-25T14:25:40.801Z,18.20
2022-09-25T14:28:23.714Z,21.13
2022-09-25T14:31:08.715Z,19.73
2022-09-25T14:34:06.246Z,22.08
2022-09-25T14:36:45.358Z,21.75
2022-09-25T14:39:30.783Z,21.92
2022-09-25T14:42:35.045Z,17.20
2022-09-25T14:45:51.900Z,17.73
2022-09-25T14:48:27.386Z,25.38
2022-09-25T14:50:59.335Z,38.47
2022-09-25T14:53:34.974Z,23.88
2022-09-25T14:56:09.671Z,20.02
2022-09-25T14:58:41.803Z,19.13
2022-09-25T15:01:18.131Z,19.50
2022-09-25T15:03:50.894Z,19.45
2022-09-25T15:06:28.591Z,20.25
2022-09-25T15:08:57.498Z,22.70
2022-09-25T15:11:29.895Z,19.02
2022-09-25T15:14:11.915Z,17.20
2022-09-25T15:16:58.276Z,19.33
2022-09-25T15:19:33.259Z,32.35
2022-09-25T15:22:02.312Z,25.35
2022-09-25T15:24:35.565Z,18.83
2022-09-25T15:27:07.856Z,16.13
2022-09-25T15:29:38.371Z,16.98
2022-09-25T15:32:07.692Z,16.52
2022-09-25T15:34:37.867Z,16.90
2022-09-25T15:37:18.296Z,18.92
2022-09-25T15:39:46.894Z,21.83
2022-09-25T15:42:16.194Z,23.80
2022-09-25T15:44:45.101Z,25.58
2022-09-25T15:47:52.294Z,23.67
2022-09-25T15:50:25.535Z,21.35
2022-09-25T15:52:56.767Z,22.20
2022-09-25T15:55:30.002Z,25.77
2022-09-25T15:58:07.382Z,25.07
2022-09-25T16:00:53.879Z,20.98
2022-09-25T16:03:44.192Z,21.90
2022-09-25T16:06:15.876Z,26.10
2022-09-25T16:08:45.101Z,21.33
2022-09-25T16:11:21.810Z,18.67
2022-09-25T16:13:52.450Z,18.90
2022-09-25T16:16:26.526Z,22.23
2022-09-25T16:18:57.610Z,51.45
2022-09-25T16:21:31.895Z,38.77
2022-09-25T16:24:03.042Z,31.77
2022-09-25T16:26:38.609Z,24.47
2022-09-25T16:29:15.522Z,26.63
2022-09-25T16:31:47.037Z,27.43
2022-09-25T16:34:26.373Z,28.00
2022-09-25T16:36:58.361Z,25.07
2022-09-25T16:39:30.483Z,21.43
2022-09-25T16:42:00.339Z,29.83
2022-09-25T16:44:47.405Z,32.47
2022-09-25T16:47:18.967Z,30.10
2022-09-25T16:49:58.263Z,30.37
2022-09-25T16:52:32.287Z,31.03
2022-09-25T16:55:01.017Z,37.40
2022-09-25T16:57:29.845Z,37.47
2022-09-25T16:59:59.169Z,37.43
2022-09-25T17:02:37.470Z,34.17
2022-09-25T17:05:12.386Z,31.83
2022-09-25T17:07:41.247Z,29.43
2022-09-25T17:10:18.108Z,27.23
2022-09-25T17:12:52.788Z,28.87
2022-09-25T17:15:26.440Z,29.03
2022-09-25T17:17:55.671Z,27.63
2022-09-25T17:20:27.966Z,29.00
2022-09-25T17:22:56.878Z,36.10
2022-09-25T17:25:40.350Z,53.93
2022-09-25T17:28:10.818Z,50.83
2022-09-25T17:30:40.481Z,54.03
2022-09-25T17:33:16.233Z,54.00
2022-09-25T17:35:50.480Z,44.00
2022-09-25T17:38:20.160Z,36.13
2022-09-25T17:40:55.636Z,34.97
2022-09-25T17:43:24.947Z,35.57
2022-09-25T17:45:55.710Z,37.90
2022-09-25T17:48:55.064Z,36.83
2022-09-25T17:51:27.561Z,31.97
2022-09-25T17:54:02.583Z,36.53
2022-09-25T17:56:33.077Z,34.73
2022-09-25T17:59:02.533Z,53.77
2022-09-25T18:01:38.153Z,67.30
2022-09-25T18:04:18.759Z,82.37
2022-09-25T18:06:49.249Z,60.88
2022-09-25T18:09:18.069Z,41.00
2022-09-25T18:11:46.838Z,36.17
2022-09-25T18:14:17.578Z,43.70
2022-09-25T18:16:46.990Z,32.83
2022-09-25T18:19:35.692Z,37.00
2022-09-25T18:22:25.622Z,37.20
2022-09-25T18:24:57.057Z,40.20
2022-09-25T18:27:28.625Z,28.63
2022-09-25T18:29:57.898Z,34.20
2022-09-25T18:32:26.628Z,37.63
2022-09-25T18:34:55.892Z,35.87
2022-09-25T18:37:26.007Z,40.07
2022-09-25T18:39:54.611Z,35.17
2022-09-25T18:42:23.286Z,25.97
2022-09-25T18:44:52.044Z,26.40
2022-09-25T18:47:20.683Z,33.57
2022-09-25T18:49:50.751Z,35.73
2022-09-25T18:52:20.228Z,31.07
2022-09-25T18:54:51.053Z,25.43
2022-09-25T18:57:20.090Z,28.30
2022-09-25T18:59:51.515Z,26.07
2022-09-25T19:02:22.767Z,25.07
2022-09-25T19:04:53.030Z,26.77
2022-09-25T19:07:22.109Z,27.03
2022-09-25T19:09:52.483Z,29.90
2022-09-25T19:12:21.743Z,29.00
2022-09-25T19:14:51.388Z,25.08
2022-09-25T19:17:20.918Z,29.80
2022-09-25T19:19:49.622Z,28.80
2022-09-25T19:22:22.864Z,30.07
2022-09-25T19:24:54.627Z,29.00
2022-09-25T19:27:25.555Z,28.83
2022-09-25T19:29:55.106Z,27.73
2022-09-25T19:32:24.950Z,27.50
2022-09-25T19:34:54.578Z,28.50
2022-09-25T19:37:27.773Z,26.97
2022-09-25T19:40:15.690Z,27.83
2022-09-25T19:42:44.813Z,28.10
2022-09-25T19:45:14.216Z,26.97
2022-09-25T19:47:42.972Z,26.45
2022-09-25T19:50:12.843Z,36.33
2022-09-25T19:52:42.055Z,32.33
2022-09-25T19:55:12.370Z,33.00
2022-09-25T19:57:41.242Z,33.73
2022-09-25T20:00:11.688Z,35.80
2022-09-25T20:02:40.590Z,37.27
2022-09-25T20:05:10.783Z,29.37
2022-09-25T20:07:39.676Z,30.77
2022-09-25T20:10:08.768Z,29.35
2022-09-25T20:12:38.758Z,37.70
2022-09-25T20:15:08.526Z,41.50
2022-09-25T20:17:37.103Z,39.50
2022-09-25T20:20:06.107Z,37.13
2022-09-25T20:22:34.728Z,35.25
2022-09-25T20:25:03.653Z,40.53
2022-09-25T20:27:32.664Z,39.87
2022-09-25T20:32:45.814Z,37.73
2022-09-25T20:35:14.873Z,36.43
2022-09-25T20:37:46.409Z,36.30
2022-09-25T20:40:15.774Z,36.40
2022-09-25T20:42:44.857Z,39.50
2022-09-25T20:45:15.069Z,37.17
2022-09-25T20:47:46.588Z,37.93
2022-09-25T20:50:18.615Z,36.03
2022-09-25T20:52:47.567Z,36.70
2022-09-25T20:55:16.608Z,37.43
2022-09-25T20:57:48.431Z,30.83
2022-09-25T21:00:19.605Z,39.60
2022-09-25T21:02:48.419Z,35.73
2022-09-25T21:05:17.201Z,39.67
2022-09-25T21:07:45.894Z,39.97
2022-09-25T21:10:15.726Z,39.23
2022-09-25T21:12:45.041Z,38.37
2022-09-25T21:15:16.838Z,41.00
2022-09-25T21:17:48.188Z,38.13
2022-09-25T21:20:29.251Z,39.03
2022-09-25T21:22:57.994Z,40.03
2022-09-25T21:25:27.170Z,39.13
2022-09-25T21:27:59.456Z,39.07
2022-09-25T21:30:29.161Z,40.43
2022-09-25T21:32:59.487Z,38.27
2022-09-25T21:35:28.116Z,37.83
2022-09-25T21:37:56.768Z,38.77
2022-09-25T21:40:25.512Z,34.03
2022-09-25T21:42:58.541Z,40.90
2022-09-25T21:45:27.243Z,37.57
2022-09-25T21:47:56.159Z,38.40
2022-09-25T21:50:26.310Z,36.57
2022-09-25T21:52:55.177Z,38.07
2022-09-25T21:55:24.372Z,39.40
2022-09-25T21:57:53.675Z,38.17
2022-09-25T22:00:22.261Z,38.50
2022-09-25T22:02:50.887Z,37.87
2022-09-25T22:05:19.527Z,38.90
2022-09-25T22:07:49.715Z,40.00
2022-09-25T22:10:18.500Z,38.00
2022-09-25T22:12:47.170Z,37.23
2022-09-25T22:15:15.920Z,36.47
2022-09-25T22:17:44.575Z,38.03
2022-09-25T22:20:13.246Z,38.23
2022-09-25T22:22:41.950Z,36.13
2022-09-25T22:25:12.955Z,36.77
2022-09-25T22:27:41.640Z,35.90
2022-09-25T22:30:11.932Z,36.90
2022-09-25T22:32:40.554Z,36.57
2022-09-25T22:35:09.737Z,36.83
2022-09-25T22:37:38.328Z,37.03
2022-09-25T22:40:07.883Z,36.33
2022-09-25T22:42:37.883Z,37.40
2022-09-25T22:45:07.031Z,37.33
2022-09-25T22:47:35.772Z,36.67
2022-09-25T22:50:04.539Z,37.83
2022-09-25T22:52:35.173Z,36.67
2022-09-25T22:55:03.892Z,37.03
2022-09-25T22:57:39.058Z,37.27
2022-09-25T23:00:12.828Z,38.43
2022-09-25T23:02:41.482Z,40.87
2022-09-25T23:05:11.231Z,40.47
2022-09-25T23:07:40.145Z,41.80
2022-09-25T23:10:10.042Z,40.17
2022-09-25T23:12:38.731Z,40.73
2022-09-25T23:15:10.096Z,39.13
2022-09-25T23:17:38.869Z,39.47
2022-09-25T23:20:08.756Z,41.40
2022-09-25T23:22:37.466Z,41.63
2022-09-25T23:25:06.967Z,40.70
2022-09-25T23:27:36.285Z,41.17
2022-09-25T23:30:05.193Z,41.43
2022-09-25T23:32:35.623Z,40.67
2022-09-25T23:35:04.639Z,40.57
2022-09-25T23:37:33.282Z,40.80
2022-09-25T23:40:02.116Z,39.83
2022-09-25T23:42:30.846Z,41.63
2022-09-25T23:44:59.599Z,42.57
2022-09-25T23:47:28.222Z,43.03
2022-09-25T23:50:03.532Z,41.20
2022-09-25T23:52:33.741Z,41.37
2022-09-25T23:55:02.343Z,41.27
2022-09-25T23:57:30.942Z,40.70
2022-09-25T23:59:59.691Z,40.50
